createdAt,value
2022-10-30T00:02:23.052Z,3.77
2022-10-30T00:04:49.650Z,4.10
2022-10-30T00:07:16.301Z,6.87
2022-10-30T00:09:42.815Z,8.13
2022-10-30T00:12:09.385Z,3.90
2022-10-30T00:14:36.321Z,5.37
2022-10-30T00:17:02.885Z,6.57
2022-10-30T00:19:29.687Z,3.40
2022-10-30T00:24:23.290Z,4.43
2022-10-30T00:26:49.929Z,5.57
2022-10-30T00:29:16.487Z,6.57
2022-10-30T00:31:43.034Z,5.23
2022-10-30T00:34:09.576Z,4.40
2022-10-30T00:36:36.180Z,5.27
2022-10-30T00:39:03.991Z,9.63
2022-10-30T00:41:30.606Z,5.80
2022-10-30T00:43:57.157Z,8.03
2022-10-30T00:46:29.587Z,7.37
2022-10-30T00:48:57.218Z,7.00
2022-10-30T00:51:23.859Z,9.50
2022-10-30T00:53:50.405Z,6.33
2022-10-30T00:56:17.967Z,5.57
2022-10-30T00:58:47.376Z,5.77
2022-10-30T01:01:15.989Z,8.23
2022-10-30T01:03:42.998Z,8.90
2022-10-30T01:06:10.523Z,5.40
2022-10-30T01:08:37.670Z,4.40
2022-10-30T01:11:04.457Z,4.83
2022-10-30T01:13:31.260Z,5.60
2022-10-30T01:16:07.205Z,6.67
2022-10-30T01:18:49.421Z,8.10
2022-10-30T01:21:21.832Z,5.77
2022-10-30T01:23:48.454Z,6.90
2022-10-30T01:26:18.837Z,7.27
2022-10-30T01:28:54.517Z,4.87
2022-10-30T01:31:24.160Z,7.30
2022-10-30T01:33:58.290Z,6.57
2022-10-30T01:36:30.275Z,6.27
2022-10-30T01:38:58.276Z,9.43
2022-10-30T01:41:26.619Z,7.43
2022-10-30T01:43:58.574Z,7.20
2022-10-30T01:46:28.102Z,6.97
2022-10-30T01:49:04.119Z,6.67
2022-10-30T01:51:34.845Z,6.30
2022-10-30T01:54:13.773Z,7.57
2022-10-30T01:56:43.395Z,6.50
2022-10-30T01:59:15.121Z,3.87
2022-10-30T02:01:41.859Z,4.70
2022-10-30T02:04:08.655Z,5.27
2022-10-30T02:06:35.863Z,5.63
2022-10-30T02:09:02.453Z,6.50
2022-10-30T02:11:29.747Z,6.07
2022-10-30T02:13:56.302Z,4.30
2022-10-30T02:16:23.403Z,7.07
2022-10-30T02:18:49.917Z,6.53
2022-10-30T02:21:16.601Z,6.27
2022-10-30T02:23:43.459Z,4.67
2022-10-30T02:26:10.061Z,8.07
2022-10-30T02:28:36.676Z,5.87
2022-10-30T02:31:03.260Z,5.73
2022-10-30T02:33:29.754Z,5.17
2022-10-30T02:35:56.384Z,4.50
2022-10-30T02:38:22.929Z,9.03
2022-10-30T02:40:50.466Z,6.30
2022-10-30T02:43:17.011Z,4.67
2022-10-30T02:45:43.590Z,8.30
2022-10-30T02:50:41.672Z,8.57
2022-10-30T02:53:08.216Z,4.17
2022-10-30T02:55:34.742Z,5.53
2022-10-30T02:58:01.294Z,10.47
2022-10-30T03:00:30.629Z,5.73
2022-10-30T03:02:57.599Z,5.47
2022-10-30T03:08:08.314Z,5.87
2022-10-30T03:10:34.848Z,5.33
2022-10-30T03:13:01.404Z,7.77
2022-10-30T03:15:27.972Z,6.00
2022-10-30T03:17:54.729Z,6.53
2022-10-30T03:20:21.373Z,7.43
2022-10-30T03:22:47.948Z,5.03
2022-10-30T03:25:14.493Z,5.63
2022-10-30T03:27:41.497Z,5.47
2022-10-30T03:30:08.414Z,11.10
2022-10-30T03:32:35.069Z,4.73
2022-10-30T03:35:01.792Z,10.27
2022-10-30T03:37:28.353Z,3.57
2022-10-30T03:39:55.065Z,9.50
2022-10-30T03:42:22.123Z,4.93
2022-10-30T03:44:51.303Z,8.40
2022-10-30T03:47:17.915Z,9.53
2022-10-30T03:49:45.776Z,5.30
2022-10-30T03:52:17.271Z,6.87
2022-10-30T03:54:43.827Z,7.53
2022-10-30T03:57:13.207Z,4.97
2022-10-30T03:59:50.058Z,7.63
2022-10-30T04:02:29.325Z,5.87
2022-10-30T04:04:56.021Z,8.80
2022-10-30T04:07:22.836Z,8.30
2022-10-30T04:09:51.977Z,9.20
2022-10-30T04:12:18.695Z,6.23
2022-10-30T04:14:45.365Z,7.20
2022-10-30T04:17:11.940Z,6.40
2022-10-30T04:19:38.600Z,8.40
2022-10-30T04:22:05.146Z,6.03
2022-10-30T04:24:33.202Z,7.90
2022-10-30T04:26:59.956Z,5.27
2022-10-30T04:29:26.834Z,4.83
2022-10-30T04:31:53.456Z,3.87
2022-10-30T04:34:20.853Z,8.30
2022-10-30T04:36:47.376Z,6.57
2022-10-30T04:39:13.969Z,7.00
2022-10-30T04:41:41.739Z,4.67
2022-10-30T04:44:15.441Z,6.23
2022-10-30T04:46:42.620Z,6.53
2022-10-30T04:49:10.365Z,3.60
2022-10-30T04:51:36.949Z,4.77
2022-10-30T04:54:05.486Z,7.50
2022-10-30T04:56:35.354Z,7.93
2022-10-30T04:59:02.625Z,7.97
2022-10-30T05:01:29.661Z,10.10
2022-10-30T05:03:59.106Z,7.17
2022-10-30T05:06:26.893Z,5.10
2022-10-30T05:08:55.834Z,7.03
2022-10-30T05:11:31.719Z,5.03
2022-10-30T05:13:58.442Z,5.83
2022-10-30T05:16:25.809Z,5.50
2022-10-30T05:18:52.671Z,6.50
2022-10-30T05:21:19.313Z,5.23
2022-10-30T05:23:46.394Z,4.63
2022-10-30T05:26:13.076Z,8.47
2022-10-30T05:28:40.313Z,9.23
2022-10-30T05:31:06.825Z,7.07
2022-10-30T05:33:56.278Z,6.43
2022-10-30T05:36:24.461Z,9.70
2022-10-30T05:38:51.368Z,9.60
2022-10-30T05:41:29.097Z,9.40
2022-10-30T05:43:55.808Z,5.33
2022-10-30T05:46:22.424Z,7.53
2022-10-30T05:48:49.170Z,5.30
2022-10-30T05:51:15.736Z,9.73
2022-10-30T05:53:50.391Z,9.37
2022-10-30T05:56:19.546Z,6.17
2022-10-30T05:58:48.211Z,7.87
2022-10-30T06:01:14.898Z,8.60
2022-10-30T06:03:45.172Z,7.63
2022-10-30T06:06:12.545Z,7.50
2022-10-30T06:08:39.180Z,13.77
2022-10-30T06:11:24.407Z,8.20
2022-10-30T06:13:54.491Z,5.67
2022-10-30T06:19:19.476Z,6.83
2022-10-30T06:21:49.353Z,6.70
2022-10-30T06:24:26.041Z,8.57
2022-10-30T06:27:10.027Z,7.33
2022-10-30T06:29:36.605Z,10.40
2022-10-30T06:32:06.537Z,6.67
2022-10-30T06:34:34.343Z,12.27
2022-10-30T06:39:48.803Z,8.73
2022-10-30T06:45:35.877Z,9.27
2022-10-30T06:48:02.758Z,6.63
2022-10-30T06:50:34.345Z,9.63
2022-10-30T06:53:01.467Z,10.77
2022-10-30T06:55:28.222Z,12.37
2022-10-30T06:58:10.152Z,9.30
2022-10-30T07:00:47.153Z,7.27
2022-10-30T07:03:52.539Z,9.67
2022-10-30T07:06:19.393Z,8.37
2022-10-30T07:08:47.420Z,15.97
2022-10-30T07:11:15.056Z,8.97
2022-10-30T07:13:41.692Z,7.80
2022-10-30T07:16:28.661Z,8.37
2022-10-30T07:18:59.267Z,8.87
2022-10-30T07:21:28.910Z,10.83
2022-10-30T07:23:56.274Z,9.97
2022-10-30T07:26:33.751Z,10.90
2022-10-30T07:29:06.932Z,10.47
2022-10-30T07:31:57.530Z,8.37
2022-10-30T07:34:48.624Z,7.77
2022-10-30T07:37:35.059Z,8.80
2022-10-30T07:40:11.631Z,8.77
2022-10-30T07:43:10.568Z,8.87
2022-10-30T07:45:46.362Z,10.40
2022-10-30T07:48:32.050Z,6.63
2022-10-30T07:51:04.061Z,7.70
2022-10-30T07:53:31.600Z,6.53
2022-10-30T07:55:58.661Z,7.73
2022-10-30T07:58:54.471Z,6.97
2022-10-30T08:01:37.313Z,7.20
2022-10-30T08:04:27.678Z,6.77
2022-10-30T08:06:59.555Z,8.30
2022-10-30T08:09:26.365Z,6.47
2022-10-30T08:11:53.010Z,9.83
2022-10-30T08:14:19.866Z,7.90
2022-10-30T08:16:46.592Z,6.77
2022-10-30T08:19:13.550Z,6.23
2022-10-30T08:21:41.932Z,4.57
2022-10-30T08:24:13.445Z,6.80
2022-10-30T08:26:42.687Z,4.80
2022-10-30T08:29:11.065Z,4.53
2022-10-30T08:31:38.741Z,7.83
2022-10-30T08:34:23.660Z,6.27
2022-10-30T08:36:54.545Z,4.10
2022-10-30T08:39:21.214Z,6.00
2022-10-30T08:41:58.194Z,3.73
2022-10-30T08:44:26.551Z,6.77
2022-10-30T08:47:12.026Z,5.27
2022-10-30T08:49:39.616Z,4.60
2022-10-30T08:52:09.530Z,4.17
2022-10-30T08:54:36.149Z,5.97
2022-10-30T08:57:02.701Z,5.40
2022-10-30T08:59:29.412Z,5.10
2022-10-30T09:01:59.969Z,6.80
2022-10-30T09:04:47.334Z,5.37
2022-10-30T09:10:31.036Z,4.40
2022-10-30T09:12:58.173Z,5.77
2022-10-30T09:15:24.897Z,5.17
2022-10-30T09:18:02.337Z,6.90
2022-10-30T09:20:29.593Z,4.27
2022-10-30T09:22:57.093Z,4.20
2022-10-30T09:25:29.197Z,5.20
2022-10-30T09:28:22.969Z,2.90
2022-10-30T09:31:07.828Z,4.33
2022-10-30T09:33:37.593Z,4.83
2022-10-30T09:36:30.342Z,5.50
2022-10-30T09:38:56.944Z,4.67
2022-10-30T09:41:30.522Z,5.30
2022-10-30T09:44:01.765Z,4.50
2022-10-30T09:46:28.639Z,7.60
2022-10-30T09:48:58.498Z,6.90
2022-10-30T09:51:45.234Z,7.10
2022-10-30T09:54:16.652Z,8.83
2022-10-30T09:56:58.031Z,9.17
2022-10-30T09:59:31.764Z,11.43
2022-10-30T10:02:04.451Z,7.73
2022-10-30T10:04:39.521Z,7.70
2022-10-30T10:07:33.637Z,7.30
2022-10-30T10:10:34.628Z,5.63
2022-10-30T10:13:08.223Z,5.10
2022-10-30T10:15:56.009Z,7.33
2022-10-30T10:18:26.884Z,5.27
2022-10-30T10:20:54.173Z,5.60
2022-10-30T10:23:28.333Z,5.67
2022-10-30T10:25:55.120Z,6.40
2022-10-30T10:28:24.983Z,30.20
2022-10-30T10:31:12.192Z,88.37
2022-10-30T10:33:45.084Z,5.47
2022-10-30T10:36:27.053Z,6.77
2022-10-30T10:38:53.598Z,4.50
2022-10-30T10:41:38.817Z,5.10
2022-10-30T10:44:11.365Z,8.30
2022-10-30T10:46:56.966Z,3.80
2022-10-30T10:49:24.890Z,7.00
2022-10-30T10:51:55.651Z,6.83
2022-10-30T10:54:41.032Z,6.07
2022-10-30T10:57:07.783Z,8.40
2022-10-30T10:59:34.366Z,7.07
2022-10-30T11:02:23.016Z,5.67
2022-10-30T11:04:50.239Z,8.27
2022-10-30T11:07:46.494Z,6.80
2022-10-30T11:10:14.559Z,8.80
2022-10-30T11:12:41.682Z,6.50
2022-10-30T11:15:08.461Z,9.73
2022-10-30T11:17:37.160Z,5.40
2022-10-30T11:20:12.317Z,8.43
2022-10-30T11:22:41.304Z,6.03
2022-10-30T11:25:26.932Z,4.47
2022-10-30T11:27:57.992Z,7.93
2022-10-30T11:30:25.435Z,5.93
2022-10-30T11:32:55.468Z,4.07
2022-10-30T11:35:24.215Z,7.87
2022-10-30T11:37:51.548Z,6.23
2022-10-30T11:40:22.017Z,5.50
2022-10-30T11:42:57.701Z,6.13
2022-10-30T11:45:25.793Z,5.57
2022-10-30T11:47:52.649Z,6.57
2022-10-30T11:50:22.537Z,5.07
2022-10-30T11:52:49.793Z,7.50
2022-10-30T11:55:17.229Z,5.63
2022-10-30T11:57:45.027Z,7.83
2022-10-30T12:00:16.807Z,7.00
2022-10-30T12:02:44.327Z,7.07
2022-10-30T12:05:38.632Z,7.87
2022-10-30T12:08:08.675Z,8.07
2022-10-30T12:10:38.596Z,10.83
2022-10-30T12:13:05.505Z,9.40
2022-10-30T12:15:33.261Z,10.27
2022-10-30T12:18:00.502Z,9.27
2022-10-30T12:20:27.471Z,9.30
2022-10-30T12:22:54.264Z,10.17
2022-10-30T12:25:21.010Z,13.67
2022-10-30T12:27:47.835Z,13.27
2022-10-30T12:30:18.208Z,11.50
2022-10-30T12:33:03.632Z,9.93
2022-10-30T12:35:30.589Z,9.27
2022-10-30T12:37:57.640Z,10.73
2022-10-30T12:40:25.819Z,7.87
2022-10-30T12:42:59.105Z,9.47
2022-10-30T12:45:36.265Z,7.70
2022-10-30T12:48:17.782Z,10.10
2022-10-30T12:50:49.654Z,10.00
2022-10-30T12:53:35.283Z,12.43
2022-10-30T12:56:02.594Z,8.83
2022-10-30T12:58:41.617Z,11.20
2022-10-30T13:01:11.910Z,10.30
2022-10-30T13:03:38.854Z,7.30
2022-10-30T13:06:14.073Z,8.70
2022-10-30T13:08:50.989Z,12.37
2022-10-30T13:11:36.679Z,9.07
2022-10-30T13:14:03.950Z,8.97
2022-10-30T13:16:31.211Z,8.30
2022-10-30T13:18:59.563Z,8.27
2022-10-30T13:21:36.103Z,8.97
2022-10-30T13:24:04.062Z,8.90
2022-10-30T13:26:36.834Z,10.73
2022-10-30T13:29:03.523Z,9.33
2022-10-30T13:31:30.339Z,9.70
2022-10-30T13:34:01.369Z,13.40
2022-10-30T13:36:31.207Z,9.60
2022-10-30T13:39:00.228Z,9.93
2022-10-30T13:41:34.039Z,12.03
2022-10-30T13:44:09.795Z,12.33
2022-10-30T13:46:48.933Z,15.07
2022-10-30T13:49:34.843Z,10.90
2022-10-30T13:52:02.816Z,13.97
2022-10-30T13:54:34.206Z,12.97
2022-10-30T13:57:02.543Z,11.00
2022-10-30T13:59:38.329Z,11.73
2022-10-30T14:02:10.935Z,12.90
2022-10-30T14:04:50.125Z,14.60
2022-10-30T14:07:21.491Z,12.60
2022-10-30T14:09:54.414Z,17.07
2022-10-30T14:12:39.825Z,15.60
2022-10-30T14:15:07.205Z,14.37
2022-10-30T14:17:33.843Z,14.93
2022-10-30T14:20:13.299Z,13.50
2022-10-30T14:25:24.682Z,13.13
2022-10-30T14:27:55.325Z,14.37
2022-10-30T14:30:22.166Z,15.27
2022-10-30T14:32:49.462Z,14.80
2022-10-30T14:35:33.239Z,20.50
2022-10-30T14:38:09.203Z,16.87
2022-10-30T14:40:54.236Z,13.83
2022-10-30T14:43:26.591Z,14.27
2022-10-30T14:45:54.941Z,15.17
2022-10-30T14:48:26.921Z,15.60
2022-10-30T14:50:56.895Z,16.00
2022-10-30T14:53:29.467Z,16.33
2022-10-30T14:55:56.186Z,16.30
2022-10-30T14:58:26.522Z,16.07
2022-10-30T15:01:16.602Z,16.03
2022-10-30T15:03:52.437Z,14.13
2022-10-30T15:06:38.047Z,15.53
2022-10-30T15:09:12.368Z,19.60
2022-10-30T15:11:44.949Z,18.27
2022-10-30T15:14:48.648Z,16.60
2022-10-30T15:17:37.797Z,16.43
2022-10-30T15:20:05.447Z,17.73
2022-10-30T15:22:31.995Z,21.87
2022-10-30T15:24:59.762Z,17.47
2022-10-30T15:27:26.352Z,16.23
2022-10-30T15:29:54.519Z,18.73
2022-10-30T15:32:21.944Z,17.63
2022-10-30T15:35:03.131Z,16.20
2022-10-30T15:37:30.087Z,19.17
2022-10-30T15:40:09.305Z,15.47
2022-10-30T15:42:36.154Z,19.40
2022-10-30T15:45:02.958Z,18.17
2022-10-30T15:47:29.910Z,15.40
2022-10-30T15:49:57.341Z,15.23
2022-10-30T15:52:31.074Z,16.37
2022-10-30T15:55:02.074Z,18.07
2022-10-30T15:58:12.990Z,16.97
2022-10-30T16:00:28.143Z,17.33
2022-10-30T16:03:02.070Z,18.10
2022-10-30T16:05:30.375Z,16.60
2022-10-30T16:07:57.697Z,15.97
2022-10-30T16:10:25.092Z,17.73
2022-10-30T16:12:56.252Z,15.83
2022-10-30T16:15:34.904Z,19.83
2022-10-30T16:18:10.699Z,31.13
2022-10-30T16:20:39.704Z,20.23
2022-10-30T16:23:06.794Z,20.80
2022-10-30T16:25:37.457Z,19.40
2022-10-30T16:28:05.133Z,17.97
2022-10-30T16:30:33.473Z,22.40
2022-10-30T16:33:01.767Z,28.53
2022-10-30T16:35:28.547Z,23.57
2022-10-30T16:37:55.638Z,25.57
2022-10-30T16:40:24.090Z,21.00
2022-10-30T16:43:01.133Z,23.57
2022-10-30T16:45:28.432Z,26.97
2022-10-30T16:48:03.119Z,24.83
2022-10-30T16:50:36.740Z,26.83
2022-10-30T16:53:10.097Z,22.77
2022-10-30T16:55:38.746Z,23.67
2022-10-30T16:58:05.385Z,26.83
2022-10-30T17:00:36.219Z,24.77
2022-10-30T17:03:07.438Z,35.13
2022-10-30T17:05:37.774Z,28.07
2022-10-30T17:08:26.688Z,28.20
2022-10-30T17:10:56.432Z,29.13
2022-10-30T17:13:33.957Z,30.80
2022-10-30T17:16:21.766Z,30.87
2022-10-30T17:18:52.393Z,32.00
2022-10-30T17:21:39.545Z,66.80
2022-10-30T17:24:07.367Z,36.70
2022-10-30T17:26:39.391Z,31.43
2022-10-30T17:29:06.154Z,37.47
2022-10-30T17:31:39.082Z,39.43
2022-10-30T17:34:15.198Z,40.10
2022-10-30T17:36:48.384Z,34.13
2022-10-30T17:39:15.177Z,35.73
2022-10-30T17:41:42.601Z,33.53
2022-10-30T17:44:15.832Z,29.23
2022-10-30T17:46:42.640Z,33.40
2022-10-30T17:49:11.259Z,27.93
2022-10-30T17:51:38.360Z,39.07
2022-10-30T17:54:07.761Z,30.27
2022-10-30T17:56:35.471Z,30.77
2022-10-30T17:59:02.145Z,52.13
2022-10-30T18:01:30.159Z,31.97
2022-10-30T18:03:58.368Z,49.77
2022-10-30T18:06:25.894Z,45.23
2022-10-30T18:08:53.618Z,34.00
2022-10-30T18:11:21.113Z,40.23
2022-10-30T18:13:48.116Z,33.47
2022-10-30T18:16:17.780Z,31.73
2022-10-30T18:18:45.581Z,32.60
2022-10-30T18:21:20.992Z,32.80
2022-10-30T18:23:52.891Z,25.23
2022-10-30T18:26:21.649Z,27.53
2022-10-30T18:28:48.346Z,30.00
2022-10-30T18:31:16.360Z,33.30
2022-10-30T18:33:43.161Z,42.60
2022-10-30T18:36:14.937Z,47.80
2022-10-30T18:38:41.812Z,39.57
2022-10-30T18:41:32.700Z,45.87
2022-10-30T18:43:59.648Z,31.27
2022-10-30T18:46:26.322Z,34.57
2022-10-30T18:49:00.411Z,41.97
2022-10-30T18:51:28.025Z,37.50
2022-10-30T18:53:55.266Z,38.93
2022-10-30T18:56:22.816Z,35.27
2022-10-30T18:58:52.445Z,34.07
2022-10-30T19:01:21.811Z,33.13
2022-10-30T19:03:48.972Z,33.10
2022-10-30T19:06:16.354Z,31.70
2022-10-30T19:08:42.966Z,44.77
2022-10-30T19:11:10.717Z,41.27
2022-10-30T19:13:37.476Z,37.43
2022-10-30T19:16:04.348Z,35.43
2022-10-30T19:18:33.215Z,47.70
2022-10-30T19:21:06.541Z,46.20
2022-10-30T19:23:36.198Z,57.33
2022-10-30T19:26:02.837Z,52.57
2022-10-30T19:28:31.166Z,44.97
2022-10-30T19:33:42.158Z,48.80
2022-10-30T19:36:27.552Z,53.17
2022-10-30T19:38:54.285Z,78.63
2022-10-30T19:41:20.987Z,51.27
2022-10-30T19:43:48.912Z,54.43
2022-10-30T19:46:15.606Z,54.50
2022-10-30T19:48:59.314Z,59.77
2022-10-30T19:51:27.519Z,50.97
2022-10-30T19:53:55.182Z,59.60
2022-10-30T19:56:22.075Z,60.27
2022-10-30T19:58:48.989Z,78.90
2022-10-30T20:01:16.942Z,62.63
2022-10-30T20:03:43.784Z,74.17
2022-10-30T20:06:15.968Z,64.20
2022-10-30T20:08:42.794Z,64.87
2022-10-30T20:11:09.599Z,59.47
2022-10-30T20:13:37.463Z,60.43
2022-10-30T20:16:06.236Z,63.93
2022-10-30T20:18:34.918Z,55.07
2022-10-30T20:21:02.136Z,55.67
2022-10-30T20:23:29.087Z,70.30
2022-10-30T20:26:00.421Z,58.43
2022-10-30T20:28:28.176Z,52.47
2022-10-30T20:30:54.946Z,57.90
2022-10-30T20:33:21.602Z,53.87
2022-10-30T20:35:48.360Z,59.50
2022-10-30T20:38:22.040Z,54.73
2022-10-30T20:40:50.110Z,50.90
2022-10-30T20:43:18.824Z,48.13
2022-10-30T20:45:45.807Z,48.00
2022-10-30T20:48:12.838Z,50.70
2022-10-30T20:50:39.635Z,50.50
2022-10-30T20:53:07.790Z,48.70
2022-10-30T20:55:35.502Z,48.43
2022-10-30T20:58:02.673Z,45.30
2022-10-30T21:00:32.200Z,46.47
2022-10-30T21:02:58.821Z,49.63
2022-10-30T21:05:55.325Z,50.23
2022-10-30T21:08:15.427Z,37.37
2022-10-30T21:10:42.205Z,39.47
2022-10-30T21:13:10.226Z,39.10
2022-10-30T21:15:42.697Z,48.07
2022-10-30T21:18:09.664Z,48.10
2022-10-30T21:23:18.811Z,63.40
2022-10-30T21:25:45.579Z,66.30
2022-10-30T21:28:12.381Z,63.87
2022-10-30T21:30:38.978Z,65.17
2022-10-30T21:33:06.132Z,71.07
2022-10-30T21:35:32.728Z,55.67
2022-10-30T21:37:59.474Z,64.27
2022-10-30T21:40:26.379Z,86.90
2022-10-30T21:42:53.080Z,71.57
2022-10-30T21:45:19.662Z,67.77
2022-10-30T21:47:51.280Z,61.00
2022-10-30T21:50:18.591Z,51.97
2022-10-30T21:52:45.318Z,70.13
2022-10-30T21:55:12.228Z,66.13
2022-10-30T21:57:41.546Z,77.60
2022-10-30T22:00:08.736Z,73.07
2022-10-30T22:02:35.391Z,54.87
2022-10-30T22:05:02.099Z,62.17
2022-10-30T22:07:28.827Z,63.70
2022-10-30T22:09:55.573Z,68.13
2022-10-30T22:12:22.283Z,61.07
2022-10-30T22:14:49.082Z,62.30
2022-10-30T22:17:15.795Z,58.27
2022-10-30T22:19:42.549Z,57.57
2022-10-30T22:22:09.352Z,63.93
2022-10-30T22:24:35.929Z,63.30
2022-10-30T22:27:02.764Z,56.53
2022-10-30T22:29:30.393Z,57.57
2022-10-30T22:31:57.067Z,56.70
2022-10-30T22:34:24.171Z,62.00
2022-10-30T22:36:51.186Z,61.93
2022-10-30T22:39:18.269Z,68.03
2022-10-30T22:41:44.900Z,77.30
2022-10-30T22:44:12.738Z,74.23
2022-10-30T22:46:39.463Z,57.80
2022-10-30T22:49:06.162Z,58.53
2022-10-30T22:51:33.147Z,69.00
2022-10-30T22:54:00.571Z,68.50
2022-10-30T22:56:28.074Z,85.87
2022-10-30T23:01:40.706Z,66.43
2022-10-30T23:06:51.779Z,71.50
2022-10-30T23:09:19.189Z,85.30
2022-10-30T23:11:45.977Z,80.50
2022-10-30T23:14:12.498Z,71.43
2022-10-30T23:19:23.280Z,62.80
2022-10-30T23:21:49.805Z,70.87
2022-10-30T23:24:16.381Z,61.67
2022-10-30T23:26:42.884Z,64.07
2022-10-30T23:29:09.534Z,64.87
2022-10-30T23:31:37.110Z,66.47
2022-10-30T23:34:04.697Z,79.00
2022-10-30T23:36:31.444Z,89.77
2022-10-30T23:38:58.794Z,69.60
2022-10-30T23:41:26.024Z,61.20
2022-10-30T23:43:53.209Z,69.03
2022-10-30T23:46:19.703Z,72.43
2022-10-30T23:48:46.350Z,68.97
2022-10-30T23:51:12.893Z,65.77
2022-10-30T23:53:39.703Z,60.57
2022-10-30T23:56:06.378Z,69.93
2022-10-30T23:58:32.939Z,62.17
